Time,TemperatureF,DewpointF,PressureIn,WindDirection,WindDirectionDegrees,WindSpeedMPH,WindSpeedGustMPH,Humidity,HourlyPrecipIn,Conditions,Clouds,dailyrainin,SolarRadiationWatts/m^2,SoftwareType,DateUTC
2013-01-18 00:02:00,48.0,-4.0,-100.00,South,175,0.0,3.0,11,0.00,,,0.00,0.000000,,2013-01-18 08:02:00,
2013-01-18 00:11:00,48.0,-4.0,-100.00,South,175,0.0,3.0,11,0.00,,,0.00,0.000000,,2013-01-18 08:11:00,
2013-01-18 00:22:00,48.0,-4.0,-100.00,South,175,0.0,3.0,11,0.00,,,0.00,0.000000,,2013-01-18 08:22:00,
2013-01-18 00:53:00,46.0,-6.0,-100.00,SSE,162,8.0,10.0,11,-99.99,,,0.00,0.000000,,2013-01-18 08:53:00,
2013-01-18 01:02:00,46.0,-6.0,-100.00,SSE,162,8.0,10.0,11,-99.99,,,0.00,0.000000,,2013-01-18 09:02:00,
2013-01-18 01:12:00,46.0,-6.0,-100.00,SSE,162,8.0,10.0,11,-99.99,,,0.00,0.000000,,2013-01-18 09:12:00,
2013-01-18 01:22:00,46.0,-6.0,-100.00,SSE,162,8.0,10.0,11,-99.99,,,0.00,0.000000,,2013-01-18 09:22:00,
2013-01-18 01:52:00,46.0,-6.0,-100.00,South,180,9.0,13.0,11,0.00,,,0.00,0.000000,,2013-01-18 09:52:00,
2013-01-18 02:02:00,46.0,-6.0,-100.00,South,180,9.0,13.0,11,0.00,,,0.00,0.000000,,2013-01-18 10:02:00,
2013-01-18 02:12:00,46.0,-6.0,-100.00,South,180,9.0,13.0,11,0.00,,,0.00,0.000000,,2013-01-18 10:12:00,
2013-01-18 02:22:00,46.0,-6.0,-100.00,South,180,9.0,13.0,11,0.00,,,0.00,0.000000,,2013-01-18 10:22:00,
2013-01-18 02:52:00,46.0,-6.0,-100.00,SSE,168,5.0,12.0,11,-99.99,,,0.00,0.000000,,2013-01-18 10:52:00,
2013-01-18 03:02:00,46.0,-6.0,-100.00,SSE,168,5.0,12.0,11,-99.99,,,0.00,0.000000,,2013-01-18 11:02:00,
2013-01-18 03:53:00,47.0,-5.0,-100.00,ENE,64,2.0,10.0,11,-99.99,,,0.00,0.000000,,2013-01-18 11:53:00,
2013-01-18 04:02:00,47.0,-5.0,-100.00,ENE,64,2.0,10.0,11,-99.99,,,0.00,0.000000,,2013-01-18 12:02:00,
2013-01-18 04:53:00,48.0,-4.0,-100.00,ENE,76,3.0,14.0,11,-99.99,,,0.00,0.000000,,2013-01-18 12:53:00,
2013-01-18 05:02:00,48.0,-4.0,-100.00,ENE,76,3.0,14.0,11,-99.99,,,0.00,0.000000,,2013-01-18 13:02:00,
2013-01-18 05:53:00,48.0,-4.0,-100.00,SSW,213,3.0,10.0,11,-99.99,,,-99.99,0.000000,,2013-01-18 13:53:00,
2013-01-18 06:53:00,43.0,-6.0,-100.00,South,183,0.0,10.0,12,-99.99,,,0.00,0.000000,,2013-01-18 14:53:00,
2013-01-18 07:03:00,43.0,-6.0,-100.00,South,183,0.0,10.0,12,-99.99,,,0.00,0.000000,,2013-01-18 15:03:00,
2013-01-18 07:12:00,43.0,-6.0,-100.00,South,183,0.0,10.0,12,-99.99,,,0.00,0.000000,,2013-01-18 15:12:00,
2013-01-18 07:22:00,43.0,-6.0,-100.00,South,183,0.0,10.0,12,-99.99,,,0.00,0.000000,,2013-01-18 15:22:00,
2013-01-18 07:53:00,45.0,-5.0,-100.00,SSE,155,3.0,7.0,12,0.00,,,0.00,5.000000,,2013-01-18 15:53:00,
2013-01-18 08:02:00,45.0,-5.0,-100.00,SSE,155,3.0,7.0,12,0.00,,,0.00,5.000000,,2013-01-18 16:02:00,
2013-01-18 08:12:00,45.0,-5.0,-100.00,SSE,155,3.0,7.0,12,0.00,,,0.00,5.000000,,2013-01-18 16:12:00,
2013-01-18 08:22:00,45.0,-5.0,-100.00,SSE,155,3.0,7.0,12,0.00,,,0.00,5.000000,,2013-01-18 16:22:00,
2013-01-18 08:53:00,50.0,-4.0,-100.00,South,172,3.0,5.0,10,0.00,,,0.00,178.000000,,2013-01-18 16:53:00,
2013-01-18 09:02:00,50.0,-4.0,-100.00,South,172,3.0,5.0,10,0.00,,,0.00,178.000000,,2013-01-18 17:02:00,
2013-01-18 09:12:00,50.0,-4.0,-100.00,South,172,3.0,5.0,10,0.00,,,0.00,178.000000,,2013-01-18 17:12:00,
2013-01-18 09:22:00,50.0,-4.0,-100.00,South,172,3.0,5.0,10,0.00,,,0.00,178.000000,,2013-01-18 17:22:00,
2013-01-18 09:53:00,45.0,0.0,-100.00,East,85,4.0,10.0,15,0.00,,,0.00,409.000000,,2013-01-18 17:53:00,
2013-01-18 10:03:00,45.0,0.0,-100.00,East,85,4.0,10.0,15,0.00,,,0.00,409.000000,,2013-01-18 18:03:00,
2013-01-18 10:12:00,45.0,0.0,-100.00,East,85,4.0,10.0,15,0.00,,,0.00,409.000000,,2013-01-18 18:12:00,
2013-01-18 10:22:00,45.0,0.0,-100.00,East,85,4.0,10.0,15,0.00,,,0.00,409.000000,,2013-01-18 18:22:00,
2013-01-18 10:53:00,44.0,1.0,-100.00,NNE,20,13.0,19.0,16,0.00,,,0.00,598.000000,,2013-01-18 18:53:00,
2013-01-18 11:02:00,44.0,1.0,-100.00,NNE,20,13.0,19.0,16,0.00,,,0.00,598.000000,,2013-01-18 19:02:00,
2013-01-18 11:12:00,44.0,1.0,-100.00,NNE,20,13.0,19.0,16,0.00,,,0.00,598.000000,,2013-01-18 19:12:00,
2013-01-18 11:22:00,44.0,1.0,-100.00,NNE,20,13.0,19.0,16,0.00,,,0.00,598.000000,,2013-01-18 19:22:00,
2013-01-18 11:53:00,50.0,-1.0,-100.00,NNE,33,10.0,22.0,12,-99.99,,,0.00,727.000000,,2013-01-18 19:53:00,
2013-01-18 12:03:00,50.0,-1.0,-100.00,NNE,33,10.0,22.0,12,-99.99,,,0.00,727.000000,,2013-01-18 20:03:00,
2013-01-18 12:12:00,50.0,-1.0,-100.00,NNE,33,10.0,22.0,12,-99.99,,,0.00,727.000000,,2013-01-18 20:12:00,
2013-01-18 12:22:00,50.0,-1.0,-100.00,NNE,33,10.0,22.0,12,-99.99,,,0.00,727.000000,,2013-01-18 20:22:00,
2013-01-18 12:53:00,52.0,-1.0,-100.00,NNE,32,12.0,19.0,11,0.00,,,0.00,780.000000,,2013-01-18 20:53:00,
2013-01-18 13:03:00,52.0,-1.0,-100.00,NNE,32,12.0,19.0,11,0.00,,,0.00,780.000000,,2013-01-18 21:03:00,
2013-01-18 13:12:00,52.0,-1.0,-100.00,NNE,32,12.0,19.0,11,0.00,,,0.00,780.000000,,2013-01-18 21:12:00,
2013-01-18 13:22:00,52.0,-1.0,-100.00,NNE,32,12.0,19.0,11,0.00,,,0.00,780.000000,,2013-01-18 21:22:00,
2013-01-18 13:53:00,55.0,1.0,-100.00,East,98,4.0,17.0,11,0.00,,,-99.99,752.000000,,2013-01-18 21:53:00,
2013-01-18 14:02:00,55.0,1.0,-100.00,East,98,4.0,17.0,11,0.00,,,-99.99,752.000000,,2013-01-18 22:02:00,
2013-01-18 14:12:00,55.0,1.0,-100.00,East,98,4.0,17.0,11,0.00,,,-99.99,752.000000,,2013-01-18 22:12:00,
2013-01-18 14:22:00,55.0,1.0,-100.00,East,98,4.0,17.0,11,0.00,,,-99.99,752.000000,,2013-01-18 22:22:00,
2013-01-18 14:53:00,59.0,3.0,-100.00,South,172,5.0,11.0,10,0.00,,,0.00,646.000000,,2013-01-18 22:53:00,
2013-01-18 15:02:00,59.0,3.0,-100.00,South,172,5.0,11.0,10,0.00,,,0.00,646.000000,,2013-01-18 23:02:00,
2013-01-18 15:12:00,59.0,3.0,-100.00,South,172,5.0,11.0,10,0.00,,,0.00,646.000000,,2013-01-18 23:12:00,
2013-01-18 15:22:00,59.0,3.0,-100.00,South,172,5.0,11.0,10,0.00,,,0.00,646.000000,,2013-01-18 23:22:00,
2013-01-18 15:53:00,58.0,2.0,-100.00,South,175,5.0,11.0,10,0.00,,,0.00,470.000000,,2013-01-18 23:53:00,
2013-01-18 16:02:00,58.0,2.0,-100.00,South,175,5.0,11.0,10,0.00,,,0.00,470.000000,,2013-01-19 00:02:00,
2013-01-18 16:12:00,58.0,2.0,-100.00,South,175,5.0,11.0,10,0.00,,,0.00,470.000000,,2013-01-19 00:12:00,
2013-01-18 16:22:00,58.0,2.0,-100.00,South,175,5.0,11.0,10,0.00,,,0.00,470.000000,,2013-01-19 00:22:00,
2013-01-18 16:53:00,51.0,-2.0,-100.00,South,185,3.0,9.0,11,0.00,,,0.00,233.000000,,2013-01-19 00:53:00,
2013-01-18 17:02:00,51.0,-2.0,-100.00,South,185,3.0,9.0,11,0.00,,,0.00,233.000000,,2013-01-19 01:02:00,
2013-01-18 17:12:00,51.0,-2.0,-100.00,South,185,3.0,9.0,11,0.00,,,0.00,233.000000,,2013-01-19 01:12:00,
2013-01-18 17:22:00,51.0,-2.0,-100.00,South,185,3.0,9.0,11,0.00,,,0.00,233.000000,,2013-01-19 01:22:00,
2013-01-18 17:52:00,46.0,1.0,-100.00,SSW,194,0.0,0.0,15,0.00,,,0.00,9.000000,,2013-01-19 01:52:00,
2013-01-18 18:02:00,46.0,1.0,-100.00,SSW,194,0.0,0.0,15,0.00,,,0.00,9.000000,,2013-01-19 02:02:00,
2013-01-18 18:12:00,46.0,1.0,-100.00,SSW,194,0.0,0.0,15,0.00,,,0.00,9.000000,,2013-01-19 02:12:00,
2013-01-18 18:22:00,46.0,1.0,-100.00,SSW,194,0.0,0.0,15,0.00,,,0.00,9.000000,,2013-01-19 02:22:00,
2013-01-18 18:53:00,48.0,1.0,-100.00,NNW,331,0.0,0.0,14,0.00,,,0.00,0.000000,,2013-01-19 02:53:00,
2013-01-18 19:02:00,48.0,1.0,-100.00,NNW,331,0.0,0.0,14,0.00,,,0.00,0.000000,,2013-01-19 03:02:00,
2013-01-18 19:12:00,48.0,1.0,-100.00,NNW,331,0.0,0.0,14,0.00,,,0.00,0.000000,,2013-01-19 03:12:00,
2013-01-18 19:22:00,48.0,1.0,-100.00,NNW,331,0.0,0.0,14,0.00,,,0.00,0.000000,,2013-01-19 03:22:00,
2013-01-18 19:52:00,47.0,-1.0,-100.00,WNW,296,0.0,4.0,13,0.00,,,0.00,0.000000,,2013-01-19 03:52:00,
2013-01-18 20:02:00,47.0,-1.0,-100.00,WNW,296,0.0,4.0,13,0.00,,,0.00,0.000000,,2013-01-19 04:02:00,
2013-01-18 20:12:00,47.0,-1.0,-100.00,WNW,296,0.0,4.0,13,0.00,,,0.00,0.000000,,2013-01-19 04:12:00,
2013-01-18 20:22:00,47.0,-1.0,-100.00,WNW,296,0.0,4.0,13,0.00,,,0.00,0.000000,,2013-01-19 04:22:00,
2013-01-18 20:53:00,47.0,-3.0,-100.00,South,172,0.0,6.0,12,0.00,,,0.00,0.000000,,2013-01-19 04:53:00,
2013-01-18 21:03:00,47.0,-3.0,-100.00,South,172,0.0,6.0,12,0.00,,,0.00,0.000000,,2013-01-19 05:03:00,
2013-01-18 21:12:00,47.0,-3.0,-100.00,South,172,0.0,6.0,12,0.00,,,0.00,0.000000,,2013-01-19 05:12:00,
2013-01-18 21:22:00,47.0,-3.0,-100.00,South,172,0.0,6.0,12,0.00,,,0.00,0.000000,,2013-01-19 05:22:00,
2013-01-18 21:53:00,48.0,-4.0,-100.00,South,172,1.0,6.0,11,0.00,,,0.00,0.000000,,2013-01-19 05:53:00,
2013-01-18 22:02:00,48.0,-4.0,-100.00,South,172,1.0,6.0,11,0.00,,,0.00,0.000000,,2013-01-19 06:02:00,
2013-01-18 22:12:00,48.0,-4.0,-100.00,South,172,1.0,6.0,11,0.00,,,0.00,0.000000,,2013-01-19 06:12:00,
2013-01-18 22:22:00,48.0,-4.0,-100.00,South,172,1.0,6.0,11,0.00,,,0.00,0.000000,,2013-01-19 06:22:00,
2013-01-18 22:53:00,50.0,-4.0,-100.00,SSE,167,3.0,10.0,10,0.00,,,0.00,0.000000,,2013-01-19 06:53:00,
2013-01-18 23:02:00,50.0,-4.0,-100.00,SSE,167,3.0,10.0,10,0.00,,,0.00,0.000000,,2013-01-19 07:02:00,
2013-01-18 23:52:00,48.0,-6.0,-100.00,SSW,194,7.0,11.0,10,-99.99,,,0.00,0.000000,,2013-01-19 07:52:00,